sensor_id;sensor_type;location;lat;lon;timestamp;temperature;humidity
34837;DHT22;21053;50.848;4.652;2024-02-14T00:00:22;10.50;99.90
34837;DHT22;21053;50.848;4.652;2024-02-14T00:02:53;10.40;99.90
34837;DHT22;21053;50.848;4.652;2024-02-14T00:05:21;10.50;99.90
34837;DHT22;21053;50.848;4.652;2024-02-14T00:07:47;10.40;99.90
34837;DHT22;21053;50.848;4.652;2024-02-14T00:10:15;10.50;99.90
34837;DHT22;21053;50.848;4.652;2024-02-14T00:12:44;10.50;99.90
34837;DHT22;21053;50.848;4.652;2024-02-14T00:15:12;10.60;99.90
34837;DHT22;21053;50.848;4.652;2024-02-14T00:17:37;10.50;99.90
34837;DHT22;21053;50.848;4.652;2024-02-14T00:20:03;10.50;99.90
34837;DHT22;21053;50.848;4.652;2024-02-14T00:22:32;10.50;99.90
34837;DHT22;21053;50.848;4.652;2024-02-14T00:25:01;10.50;99.90
34837;DHT22;21053;50.848;4.652;2024-02-14T00:27:30;10.60;99.90
34837;DHT22;21053;50.848;4.652;2024-02-14T00:29:57;10.60;99.90
34837;DHT22;21053;50.848;4.652;2024-02-14T00:32:23;10.70;99.90
34837;DHT22;21053;50.848;4.652;2024-02-14T00:34:52;10.80;99.90
34837;DHT22;21053;50.848;4.652;2024-02-14T00:37:19;10.70;99.90
34837;DHT22;21053;50.848;4.652;2024-02-14T00:39:48;10.60;99.90
34837;DHT22;21053;50.848;4.652;2024-02-14T00:42:15;10.60;99.90
34837;DHT22;21053;50.848;4.652;2024-02-14T00:44:43;10.60;99.90
34837;DHT22;21053;50.848;4.652;2024-02-14T00:47:09;10.70;99.90
34837;DHT22;21053;50.848;4.652;2024-02-14T00:49:38;10.60;99.90
34837;DHT22;21053;50.848;4.652;2024-02-14T00:52:10;10.60;99.90
34837;DHT22;21053;50.848;4.652;2024-02-14T00:54:39;10.70;99.90
34837;DHT22;21053;50.848;4.652;2024-02-14T00:57:08;10.70;99.90
34837;DHT22;21053;50.848;4.652;2024-02-14T00:59:33;10.60;99.90
34837;DHT22;21053;50.848;4.652;2024-02-14T01:02:02;10.60;99.90
34837;DHT22;21053;50.848;4.652;2024-02-14T01:04:31;10.60;99.90
34837;DHT22;21053;50.848;4.652;2024-02-14T01:06:57;10.60;99.90
34837;DHT22;21053;50.848;4.652;2024-02-14T01:09:27;10.70;99.90
34837;DHT22;21053;50.848;4.652;2024-02-14T01:11:54;10.70;99.90
34837;DHT22;21053;50.848;4.652;2024-02-14T01:14:20;10.80;99.90
34837;DHT22;21053;50.848;4.652;2024-02-14T01:16:50;10.90;99.90
34837;DHT22;21053;50.848;4.652;2024-02-14T01:19:17;10.90;99.90
34837;DHT22;21053;50.848;4.652;2024-02-14T01:21:47;10.90;99.90
34837;DHT22;21053;50.848;4.652;2024-02-14T01:24:16;10.90;99.90
34837;DHT22;21053;50.848;4.652;2024-02-14T01:26:45;10.90;99.90
34837;DHT22;21053;50.848;4.652;2024-02-14T01:29:12;10.80;99.90
34837;DHT22;21053;50.848;4.652;2024-02-14T01:31:40;10.80;99.90
34837;DHT22;21053;50.848;4.652;2024-02-14T01:34:07;10.80;99.90
34837;DHT22;21053;50.848;4.652;2024-02-14T01:36:34;10.80;99.90
34837;DHT22;21053;50.848;4.652;2024-02-14T01:39:00;10.80;99.90
34837;DHT22;21053;50.848;4.652;2024-02-14T01:41:26;10.80;99.90
34837;DHT22;21053;50.848;4.652;2024-02-14T01:43:55;10.90;99.90
34837;DHT22;21053;50.848;4.652;2024-02-14T01:46:24;10.80;99.90
34837;DHT22;21053;50.848;4.652;2024-02-14T01:48:53;10.80;99.90
34837;DHT22;21053;50.848;4.652;2024-02-14T01:51:20;10.80;99.90
34837;DHT22;21053;50.848;4.652;2024-02-14T01:53:51;10.80;99.90
34837;DHT22;21053;50.848;4.652;2024-02-14T01:56:21;10.70;99.90
34837;DHT22;21053;50.848;4.652;2024-02-14T01:58:47;10.70;99.90
34837;DHT22;21053;50.848;4.652;2024-02-14T02:01:15;10.70;99.90
34837;DHT22;21053;50.848;4.652;2024-02-14T02:03:43;10.70;99.90
34837;DHT22;21053;50.848;4.652;2024-02-14T02:06:10;10.70;99.90
34837;DHT22;21053;50.848;4.652;2024-02-14T02:08:38;10.80;99.90
34837;DHT22;21053;50.848;4.652;2024-02-14T02:11:06;10.80;99.90
34837;DHT22;21053;50.848;4.652;2024-02-14T02:13:33;10.80;99.90
34837;DHT22;21053;50.848;4.652;2024-02-14T02:15:59;10.70;99.90
34837;DHT22;21053;50.848;4.652;2024-02-14T02:18:30;10.70;99.90
34837;DHT22;21053;50.848;4.652;2024-02-14T02:20:56;10.80;99.90
34837;DHT22;21053;50.848;4.652;2024-02-14T02:23:23;10.70;99.90
34837;DHT22;21053;50.848;4.652;2024-02-14T02:25:50;10.70;99.90
34837;DHT22;21053;50.848;4.652;2024-02-14T02:28:17;10.70;99.90
34837;DHT22;21053;50.848;4.652;2024-02-14T02:30:44;10.70;99.90
34837;DHT22;21053;50.848;4.652;2024-02-14T02:33:12;10.60;99.90
34837;DHT22;21053;50.848;4.652;2024-02-14T02:35:42;10.60;99.90
34837;DHT22;21053;50.848;4.652;2024-02-14T02:38:12;10.60;99.90
34837;DHT22;21053;50.848;4.652;2024-02-14T02:40:39;10.60;99.90
34837;DHT22;21053;50.848;4.652;2024-02-14T02:43:05;10.60;99.90
34837;DHT22;21053;50.848;4.652;2024-02-14T02:45:32;10.60;99.90
34837;DHT22;21053;50.848;4.652;2024-02-14T02:47:58;10.60;99.90
34837;DHT22;21053;50.848;4.652;2024-02-14T02:50:24;10.50;99.90
34837;DHT22;21053;50.848;4.652;2024-02-14T02:52:53;10.60;99.90
34837;DHT22;21053;50.848;4.652;2024-02-14T02:55:20;10.60;99.90
34837;DHT22;21053;50.848;4.652;2024-02-14T02:57:47;10.80;99.90
34837;DHT22;21053;50.848;4.652;2024-02-14T03:00:13;10.80;99.90
34837;DHT22;21053;50.848;4.652;2024-02-14T03:02:39;10.80;99.90
34837;DHT22;21053;50.848;4.652;2024-02-14T03:05:12;10.80;99.90
34837;DHT22;21053;50.848;4.652;2024-02-14T03:07:52;10.80;99.90
34837;DHT22;21053;50.848;4.652;2024-02-14T03:10:21;10.80;99.90
34837;DHT22;21053;50.848;4.652;2024-02-14T03:12:48;10.70;99.90
34837;DHT22;21053;50.848;4.652;2024-02-14T03:15:18;10.70;99.90
34837;DHT22;21053;50.848;4.652;2024-02-14T03:17:46;10.80;99.90
34837;DHT22;21053;50.848;4.652;2024-02-14T03:20:13;10.80;99.90
34837;DHT22;21053;50.848;4.652;2024-02-14T03:22:44;10.90;99.90
34837;DHT22;21053;50.848;4.652;2024-02-14T03:25:21;11.00;99.90
34837;DHT22;21053;50.848;4.652;2024-02-14T03:27:50;11.00;99.90
34837;DHT22;21053;50.848;4.652;2024-02-14T03:30:20;10.90;99.90
34837;DHT22;21053;50.848;4.652;2024-02-14T03:32:46;11.00;99.90
34837;DHT22;21053;50.848;4.652;2024-02-14T03:35:12;11.00;99.90
34837;DHT22;21053;50.848;4.652;2024-02-14T03:37:42;11.00;99.90
34837;DHT22;21053;50.848;4.652;2024-02-14T03:40:09;10.90;99.90
34837;DHT22;21053;50.848;4.652;2024-02-14T03:42:36;10.90;99.90
34837;DHT22;21053;50.848;4.652;2024-02-14T03:45:08;11.00;99.90
34837;DHT22;21053;50.848;4.652;2024-02-14T03:47:36;11.00;99.90
34837;DHT22;21053;50.848;4.652;2024-02-14T03:50:06;10.90;99.90
34837;DHT22;21053;50.848;4.652;2024-02-14T03:52:32;11.00;99.90
34837;DHT22;21053;50.848;4.652;2024-02-14T03:55:00;11.00;99.90
34837;DHT22;21053;50.848;4.652;2024-02-14T03:57:27;11.00;99.90
34837;DHT22;21053;50.848;4.652;2024-02-14T04:00:00;11.00;99.90
34837;DHT22;21053;50.848;4.652;2024-02-14T04:02:29;11.00;99.90
34837;DHT22;21053;50.848;4.652;2024-02-14T04:04:57;11.00;99.90
34837;DHT22;21053;50.848;4.652;2024-02-14T04:07:25;11.00;99.90
34837;DHT22;21053;50.848;4.652;2024-02-14T04:09:54;11.10;99.90
34837;DHT22;21053;50.848;4.652;2024-02-14T04:12:20;11.00;99.90
34837;DHT22;21053;50.848;4.652;2024-02-14T04:14:48;11.00;99.90
34837;DHT22;21053;50.848;4.652;2024-02-14T04:17:16;11.10;99.90
34837;DHT22;21053;50.848;4.652;2024-02-14T04:19:43;11.00;99.90
34837;DHT22;21053;50.848;4.652;2024-02-14T04:22:10;11.00;99.90
34837;DHT22;21053;50.848;4.652;2024-02-14T04:24:38;11.00;99.90
34837;DHT22;21053;50.848;4.652;2024-02-14T04:27:05;11.00;99.90
34837;DHT22;21053;50.848;4.652;2024-02-14T04:29:45;11.00;99.90
34837;DHT22;21053;50.848;4.652;2024-02-14T04:32:13;11.10;99.90
34837;DHT22;21053;50.848;4.652;2024-02-14T04:34:42;11.10;99.90
34837;DHT22;21053;50.848;4.652;2024-02-14T04:37:12;11.00;99.90
34837;DHT22;21053;50.848;4.652;2024-02-14T04:39:41;11.00;99.90
34837;DHT22;21053;50.848;4.652;2024-02-14T04:42:09;11.00;99.90
34837;DHT22;21053;50.848;4.652;2024-02-14T04:44:38;11.00;99.90
34837;DHT22;21053;50.848;4.652;2024-02-14T04:47:05;10.90;99.90
34837;DHT22;21053;50.848;4.652;2024-02-14T04:49:34;10.90;99.90
34837;DHT22;21053;50.848;4.652;2024-02-14T04:52:00;11.10;99.90
34837;DHT22;21053;50.848;4.652;2024-02-14T04:54:29;11.00;99.90
34837;DHT22;21053;50.848;4.652;2024-02-14T04:56:55;11.10;99.90
34837;DHT22;21053;50.848;4.652;2024-02-14T04:59:23;11.10;99.90
34837;DHT22;21053;50.848;4.652;2024-02-14T05:04:20;11.20;99.90
34837;DHT22;21053;50.848;4.652;2024-02-14T05:06:49;11.10;99.90
34837;DHT22;21053;50.848;4.652;2024-02-14T05:09:18;11.20;99.90
34837;DHT22;21053;50.848;4.652;2024-02-14T05:11:45;11.30;99.90
34837;DHT22;21053;50.848;4.652;2024-02-14T05:14:13;11.30;99.90
34837;DHT22;21053;50.848;4.652;2024-02-14T05:16:52;11.20;99.90
34837;DHT22;21053;50.848;4.652;2024-02-14T05:19:19;11.20;99.90
34837;DHT22;21053;50.848;4.652;2024-02-14T05:21:48;11.10;99.90
34837;DHT22;21053;50.848;4.652;2024-02-14T05:24:14;11.20;99.90
34837;DHT22;21053;50.848;4.652;2024-02-14T05:26:40;11.20;99.90
34837;DHT22;21053;50.848;4.652;2024-02-14T05:29:08;11.20;99.90
34837;DHT22;21053;50.848;4.652;2024-02-14T05:31:44;11.10;99.90
34837;DHT22;21053;50.848;4.652;2024-02-14T05:34:12;11.10;99.90
34837;DHT22;21053;50.848;4.652;2024-02-14T05:36:39;11.30;99.90
34837;DHT22;21053;50.848;4.652;2024-02-14T05:39:05;11.20;99.90
34837;DHT22;21053;50.848;4.652;2024-02-14T05:41:35;11.20;99.90
34837;DHT22;21053;50.848;4.652;2024-02-14T05:44:03;11.20;99.90
34837;DHT22;21053;50.848;4.652;2024-02-14T05:46:29;11.10;99.90
34837;DHT22;21053;50.848;4.652;2024-02-14T05:48:55;11.10;99.90
34837;DHT22;21053;50.848;4.652;2024-02-14T05:51:25;11.20;99.90
34837;DHT22;21053;50.848;4.652;2024-02-14T05:53:53;11.20;99.90
34837;DHT22;21053;50.848;4.652;2024-02-14T05:56:22;11.30;99.90
34837;DHT22;21053;50.848;4.652;2024-02-14T05:58:50;11.30;99.90
34837;DHT22;21053;50.848;4.652;2024-02-14T06:01:17;11.30;99.90
34837;DHT22;21053;50.848;4.652;2024-02-14T06:03:46;11.40;99.90
34837;DHT22;21053;50.848;4.652;2024-02-14T06:06:13;11.50;99.90
34837;DHT22;21053;50.848;4.652;2024-02-14T06:08:42;11.40;99.90
34837;DHT22;21053;50.848;4.652;2024-02-14T06:11:11;11.50;99.90
34837;DHT22;21053;50.848;4.652;2024-02-14T06:13:45;11.50;99.90
34837;DHT22;21053;50.848;4.652;2024-02-14T06:16:13;11.50;99.90
34837;DHT22;21053;50.848;4.652;2024-02-14T06:18:42;11.50;99.90
34837;DHT22;21053;50.848;4.652;2024-02-14T06:21:12;11.40;99.90
34837;DHT22;21053;50.848;4.652;2024-02-14T06:23:37;11.50;99.90
34837;DHT22;21053;50.848;4.652;2024-02-14T06:26:04;11.50;99.90
34837;DHT22;21053;50.848;4.652;2024-02-14T06:28:31;11.50;99.90
34837;DHT22;21053;50.848;4.652;2024-02-14T06:30:57;11.50;99.90
34837;DHT22;21053;50.848;4.652;2024-02-14T06:33:22;11.50;99.90
34837;DHT22;21053;50.848;4.652;2024-02-14T06:35:50;11.60;99.90
34837;DHT22;21053;50.848;4.652;2024-02-14T06:38:19;11.60;99.90
34837;DHT22;21053;50.848;4.652;2024-02-14T06:40:46;11.60;99.90
34837;DHT22;21053;50.848;4.652;2024-02-14T06:43:15;11.60;99.90
34837;DHT22;21053;50.848;4.652;2024-02-14T06:45:40;11.60;99.90
34837;DHT22;21053;50.848;4.652;2024-02-14T06:48:17;11.60;99.90
34837;DHT22;21053;50.848;4.652;2024-02-14T06:50:46;11.60;99.90
34837;DHT22;21053;50.848;4.652;2024-02-14T06:53:15;11.70;99.90
34837;DHT22;21053;50.848;4.652;2024-02-14T06:55:43;11.70;99.90
34837;DHT22;21053;50.848;4.652;2024-02-14T06:58:11;11.70;99.90
34837;DHT22;21053;50.848;4.652;2024-02-14T07:00:40;11.70;99.90
34837;DHT22;21053;50.848;4.652;2024-02-14T07:03:06;11.60;99.90
34837;DHT22;21053;50.848;4.652;2024-02-14T07:05:35;11.70;99.90
34837;DHT22;21053;50.848;4.652;2024-02-14T07:08:01;11.70;99.90
34837;DHT22;21053;50.848;4.652;2024-02-14T07:10:28;11.80;99.90
34837;DHT22;21053;50.848;4.652;2024-02-14T07:12:54;11.70;99.90
34837;DHT22;21053;50.848;4.652;2024-02-14T07:15:23;11.80;99.90
34837;DHT22;21053;50.848;4.652;2024-02-14T07:17:55;9.30;99.90
34837;DHT22;21053;50.848;4.652;2024-02-14T07:20:27;11.80;99.90
34837;DHT22;21053;50.848;4.652;2024-02-14T07:22:56;11.70;99.90
34837;DHT22;21053;50.848;4.652;2024-02-14T07:25:23;11.80;99.90
34837;DHT22;21053;50.848;4.652;2024-02-14T07:27:49;11.80;99.90
34837;DHT22;21053;50.848;4.652;2024-02-14T07:30:16;11.80;99.90
34837;DHT22;21053;50.848;4.652;2024-02-14T07:32:46;11.80;99.90
34837;DHT22;21053;50.848;4.652;2024-02-14T07:35:12;11.80;99.90
34837;DHT22;21053;50.848;4.652;2024-02-14T07:37:39;11.90;99.90
34837;DHT22;21053;50.848;4.652;2024-02-14T07:40:05;11.90;99.90
34837;DHT22;21053;50.848;4.652;2024-02-14T07:42:34;11.90;99.90
34837;DHT22;21053;50.848;4.652;2024-02-14T07:45:03;11.90;99.90
34837;DHT22;21053;50.848;4.652;2024-02-14T07:47:31;11.90;99.90
34837;DHT22;21053;50.848;4.652;2024-02-14T07:49:57;11.90;99.90
34837;DHT22;21053;50.848;4.652;2024-02-14T07:52:42;12.00;99.90
34837;DHT22;21053;50.848;4.652;2024-02-14T07:55:11;12.10;99.90
34837;DHT22;21053;50.848;4.652;2024-02-14T07:57:41;12.10;99.90
34837;DHT22;21053;50.848;4.652;2024-02-14T08:00:07;12.10;99.90
34837;DHT22;21053;50.848;4.652;2024-02-14T08:02:34;12.10;99.90
34837;DHT22;21053;50.848;4.652;2024-02-14T08:05:02;12.20;99.90
34837;DHT22;21053;50.848;4.652;2024-02-14T08:07:28;12.30;99.90
34837;DHT22;21053;50.848;4.652;2024-02-14T08:09:56;12.30;99.90
34837;DHT22;21053;50.848;4.652;2024-02-14T08:12:28;12.40;99.90
34837;DHT22;21053;50.848;4.652;2024-02-14T08:14:57;12.40;99.90
34837;DHT22;21053;50.848;4.652;2024-02-14T08:17:25;12.40;99.90
34837;DHT22;21053;50.848;4.652;2024-02-14T08:19:54;12.30;99.90
34837;DHT22;21053;50.848;4.652;2024-02-14T08:22:21;12.40;99.90
34837;DHT22;21053;50.848;4.652;2024-02-14T08:24:46;12.40;99.90
34837;DHT22;21053;50.848;4.652;2024-02-14T08:27:18;12.40;99.90
34837;DHT22;21053;50.848;4.652;2024-02-14T08:29:45;12.40;99.90
34837;DHT22;21053;50.848;4.652;2024-02-14T08:32:11;12.40;99.90
34837;DHT22;21053;50.848;4.652;2024-02-14T08:34:37;12.40;99.90
34837;DHT22;21053;50.848;4.652;2024-02-14T08:37:03;12.30;99.90
34837;DHT22;21053;50.848;4.652;2024-02-14T08:39:30;12.40;99.90
34837;DHT22;21053;50.848;4.652;2024-02-14T08:41:57;12.40;99.90
34837;DHT22;21053;50.848;4.652;2024-02-14T08:44:23;12.50;99.90
34837;DHT22;21053;50.848;4.652;2024-02-14T08:46:50;12.50;99.90
34837;DHT22;21053;50.848;4.652;2024-02-14T08:49:18;12.40;99.90
34837;DHT22;21053;50.848;4.652;2024-02-14T08:51:43;12.40;99.90
34837;DHT22;21053;50.848;4.652;2024-02-14T08:54:12;12.30;99.90
34837;DHT22;21053;50.848;4.652;2024-02-14T08:56:39;12.30;99.90
34837;DHT22;21053;50.848;4.652;2024-02-14T08:59:04;12.30;99.90
34837;DHT22;21053;50.848;4.652;2024-02-14T09:01:35;12.30;99.90
34837;DHT22;21053;50.848;4.652;2024-02-14T09:04:03;12.30;99.90
34837;DHT22;21053;50.848;4.652;2024-02-14T09:06:29;12.40;99.90
34837;DHT22;21053;50.848;4.652;2024-02-14T09:08:55;12.40;99.90
34837;DHT22;21053;50.848;4.652;2024-02-14T09:11:24;12.40;99.90
34837;DHT22;21053;50.848;4.652;2024-02-14T09:13:53;12.40;99.90
34837;DHT22;21053;50.848;4.652;2024-02-14T09:16:22;12.30;99.90
34837;DHT22;21053;50.848;4.652;2024-02-14T09:18:54;12.30;99.90
34837;DHT22;21053;50.848;4.652;2024-02-14T09:21:21;12.40;99.90
34837;DHT22;21053;50.848;4.652;2024-02-14T09:23:50;12.40;99.90
34837;DHT22;21053;50.848;4.652;2024-02-14T09:26:29;12.40;99.90
34837;DHT22;21053;50.848;4.652;2024-02-14T09:28:56;12.40;99.90
34837;DHT22;21053;50.848;4.652;2024-02-14T09:31:22;12.40;99.90
34837;DHT22;21053;50.848;4.652;2024-02-14T09:33:50;12.40;99.90
34837;DHT22;21053;50.848;4.652;2024-02-14T09:36:19;12.40;99.90
34837;DHT22;21053;50.848;4.652;2024-02-14T09:38:49;12.50;99.90
34837;DHT22;21053;50.848;4.652;2024-02-14T09:41:28;12.50;99.90
34837;DHT22;21053;50.848;4.652;2024-02-14T09:43:59;12.50;99.90
34837;DHT22;21053;50.848;4.652;2024-02-14T09:46:28;12.50;99.90
34837;DHT22;21053;50.848;4.652;2024-02-14T09:48:58;12.60;99.90
34837;DHT22;21053;50.848;4.652;2024-02-14T09:51:29;12.60;99.90
34837;DHT22;21053;50.848;4.652;2024-02-14T09:53:55;12.60;99.90
34837;DHT22;21053;50.848;4.652;2024-02-14T09:56:22;12.70;99.90
34837;DHT22;21053;50.848;4.652;2024-02-14T09:58:51;12.70;99.90
34837;DHT22;21053;50.848;4.652;2024-02-14T10:01:25;12.70;99.90
34837;DHT22;21053;50.848;4.652;2024-02-14T10:03:51;12.70;99.90
34837;DHT22;21053;50.848;4.652;2024-02-14T10:06:20;12.80;99.90
34837;DHT22;21053;50.848;4.652;2024-02-14T10:08:49;12.80;99.90
34837;DHT22;21053;50.848;4.652;2024-02-14T10:11:18;12.90;99.90
34837;DHT22;21053;50.848;4.652;2024-02-14T10:14:15;13.00;99.90
34837;DHT22;21053;50.848;4.652;2024-02-14T10:16:44;13.00;99.90
34837;DHT22;21053;50.848;4.652;2024-02-14T10:19:14;12.90;99.90
34837;DHT22;21053;50.848;4.652;2024-02-14T10:21:43;12.90;99.90
34837;DHT22;21053;50.848;4.652;2024-02-14T10:24:10;12.90;99.90
34837;DHT22;21053;50.848;4.652;2024-02-14T10:26:41;13.00;99.90
34837;DHT22;21053;50.848;4.652;2024-02-14T10:29:11;13.10;99.90
34837;DHT22;21053;50.848;4.652;2024-02-14T10:31:40;13.10;99.90
34837;DHT22;21053;50.848;4.652;2024-02-14T10:34:09;13.10;99.90
34837;DHT22;21053;50.848;4.652;2024-02-14T10:36:36;13.20;99.90
34837;DHT22;21053;50.848;4.652;2024-02-14T10:39:02;13.20;99.90
34837;DHT22;21053;50.848;4.652;2024-02-14T10:41:33;13.10;99.90
34837;DHT22;21053;50.848;4.652;2024-02-14T10:44:10;13.10;99.90
34837;DHT22;21053;50.848;4.652;2024-02-14T10:46:44;13.20;99.90
34837;DHT22;21053;50.848;4.652;2024-02-14T10:49:14;13.20;99.90
34837;DHT22;21053;50.848;4.652;2024-02-14T10:51:45;13.20;99.90
34837;DHT22;21053;50.848;4.652;2024-02-14T10:54:17;13.20;99.90
34837;DHT22;21053;50.848;4.652;2024-02-14T10:56:50;13.10;99.90
34837;DHT22;21053;50.848;4.652;2024-02-14T10:59:21;13.20;99.90
34837;DHT22;21053;50.848;4.652;2024-02-14T11:01:49;13.20;99.90
34837;DHT22;21053;50.848;4.652;2024-02-14T11:04:16;13.10;99.90
34837;DHT22;21053;50.848;4.652;2024-02-14T11:06:52;13.10;99.90
34837;DHT22;21053;50.848;4.652;2024-02-14T11:09:32;13.10;99.90
34837;DHT22;21053;50.848;4.652;2024-02-14T11:12:02;13.20;99.90
34837;DHT22;21053;50.848;4.652;2024-02-14T11:14:35;13.30;99.90
34837;DHT22;21053;50.848;4.652;2024-02-14T11:17:14;13.40;99.90
34837;DHT22;21053;50.848;4.652;2024-02-14T11:19:40;13.50;99.90
34837;DHT22;21053;50.848;4.652;2024-02-14T11:22:18;13.50;99.90
34837;DHT22;21053;50.848;4.652;2024-02-14T11:24:48;13.50;99.90
34837;DHT22;21053;50.848;4.652;2024-02-14T11:27:17;13.50;99.90
34837;DHT22;21053;50.848;4.652;2024-02-14T11:29:53;13.60;99.90
34837;DHT22;21053;50.848;4.652;2024-02-14T11:32:22;13.60;99.90
34837;DHT22;21053;50.848;4.652;2024-02-14T11:34:55;13.50;99.90
34837;DHT22;21053;50.848;4.652;2024-02-14T11:37:29;13.50;99.90
34837;DHT22;21053;50.848;4.652;2024-02-14T11:39:56;13.50;99.90
34837;DHT22;21053;50.848;4.652;2024-02-14T11:42:23;13.50;99.90
34837;DHT22;21053;50.848;4.652;2024-02-14T11:44:50;13.60;99.90
34837;DHT22;21053;50.848;4.652;2024-02-14T11:47:19;13.50;99.90
34837;DHT22;21053;50.848;4.652;2024-02-14T11:49:46;13.50;99.90
34837;DHT22;21053;50.848;4.652;2024-02-14T11:52:13;13.60;99.90
34837;DHT22;21053;50.848;4.652;2024-02-14T11:54:46;13.50;99.90
34837;DHT22;21053;50.848;4.652;2024-02-14T11:57:19;13.50;99.90
34837;DHT22;21053;50.848;4.652;2024-02-14T11:59:48;13.60;99.90
34837;DHT22;21053;50.848;4.652;2024-02-14T12:02:19;13.60;99.90
34837;DHT22;21053;50.848;4.652;2024-02-14T12:04:48;13.60;99.90
34837;DHT22;21053;50.848;4.652;2024-02-14T12:07:19;13.50;99.90
34837;DHT22;21053;50.848;4.652;2024-02-14T12:09:47;13.60;99.90
34837;DHT22;21053;50.848;4.652;2024-02-14T12:12:15;13.60;99.90
34837;DHT22;21053;50.848;4.652;2024-02-14T12:14:47;13.70;99.90
34837;DHT22;21053;50.848;4.652;2024-02-14T12:17:16;13.70;99.90
34837;DHT22;21053;50.848;4.652;2024-02-14T12:19:47;13.70;99.90
34837;DHT22;21053;50.848;4.652;2024-02-14T12:22:16;13.70;99.90
34837;DHT22;21053;50.848;4.652;2024-02-14T12:24:47;13.80;99.90
34837;DHT22;21053;50.848;4.652;2024-02-14T12:27:17;13.90;99.90
34837;DHT22;21053;50.848;4.652;2024-02-14T12:29:48;14.00;99.90
34837;DHT22;21053;50.848;4.652;2024-02-14T12:32:24;14.00;99.90
34837;DHT22;21053;50.848;4.652;2024-02-14T12:34:55;14.00;99.90
34837;DHT22;21053;50.848;4.652;2024-02-14T12:37:25;14.00;99.90
34837;DHT22;21053;50.848;4.652;2024-02-14T12:39:56;14.00;99.90
34837;DHT22;21053;50.848;4.652;2024-02-14T12:42:25;14.00;99.90
34837;DHT22;21053;50.848;4.652;2024-02-14T12:44:54;14.00;99.90
34837;DHT22;21053;50.848;4.652;2024-02-14T12:47:22;14.10;99.90
34837;DHT22;21053;50.848;4.652;2024-02-14T12:49:50;14.00;99.90
34837;DHT22;21053;50.848;4.652;2024-02-14T12:52:17;14.00;99.90
34837;DHT22;21053;50.848;4.652;2024-02-14T12:57:10;13.90;99.90
34837;DHT22;21053;50.848;4.652;2024-02-14T12:59:35;13.90;99.90
34837;DHT22;21053;50.848;4.652;2024-02-14T13:02:02;13.90;99.90
34837;DHT22;21053;50.848;4.652;2024-02-14T13:04:31;13.90;99.90
34837;DHT22;21053;50.848;4.652;2024-02-14T13:06:58;13.90;99.90
34837;DHT22;21053;50.848;4.652;2024-02-14T13:09:26;13.90;99.90
34837;DHT22;21053;50.848;4.652;2024-02-14T13:11:56;13.90;99.90
34837;DHT22;21053;50.848;4.652;2024-02-14T13:14:23;13.80;99.90
34837;DHT22;21053;50.848;4.652;2024-02-14T13:16:50;14.00;99.90
34837;DHT22;21053;50.848;4.652;2024-02-14T13:19:16;13.90;99.90
34837;DHT22;21053;50.848;4.652;2024-02-14T13:21:43;13.90;99.90
34837;DHT22;21053;50.848;4.652;2024-02-14T13:24:13;13.90;99.90
34837;DHT22;21053;50.848;4.652;2024-02-14T13:26:38;14.00;99.90
34837;DHT22;21053;50.848;4.652;2024-02-14T13:29:06;14.10;99.90
34837;DHT22;21053;50.848;4.652;2024-02-14T13:31:33;14.20;99.90
34837;DHT22;21053;50.848;4.652;2024-02-14T13:34:00;14.20;99.90
34837;DHT22;21053;50.848;4.652;2024-02-14T13:36:26;14.10;99.90
34837;DHT22;21053;50.848;4.652;2024-02-14T13:38:54;14.10;99.90
34837;DHT22;21053;50.848;4.652;2024-02-14T13:41:23;14.10;99.90
34837;DHT22;21053;50.848;4.652;2024-02-14T13:43:50;14.10;99.90
34837;DHT22;21053;50.848;4.652;2024-02-14T13:46:15;14.10;99.90
34837;DHT22;21053;50.848;4.652;2024-02-14T13:48:41;14.10;99.90
34837;DHT22;21053;50.848;4.652;2024-02-14T13:51:07;14.10;99.90
34837;DHT22;21053;50.848;4.652;2024-02-14T13:53:34;14.10;99.90
34837;DHT22;21053;50.848;4.652;2024-02-14T13:55:59;13.90;99.90
34837;DHT22;21053;50.848;4.652;2024-02-14T13:58:25;13.90;99.90
34837;DHT22;21053;50.848;4.652;2024-02-14T14:00:52;13.90;99.90
34837;DHT22;21053;50.848;4.652;2024-02-14T14:03:18;13.90;99.90
34837;DHT22;21053;50.848;4.652;2024-02-14T14:05:45;13.90;99.90
34837;DHT22;21053;50.848;4.652;2024-02-14T14:08:11;13.90;99.90
34837;DHT22;21053;50.848;4.652;2024-02-14T14:10:40;14.00;99.90
34837;DHT22;21053;50.848;4.652;2024-02-14T14:13:08;13.90;99.90
34837;DHT22;21053;50.848;4.652;2024-02-14T14:15:37;13.90;99.90
34837;DHT22;21053;50.848;4.652;2024-02-14T14:18:05;14.00;99.90
34837;DHT22;21053;50.848;4.652;2024-02-14T14:20:30;14.00;99.90
34837;DHT22;21053;50.848;4.652;2024-02-14T14:22:56;14.00;99.90
34837;DHT22;21053;50.848;4.652;2024-02-14T14:25:24;14.10;99.90
34837;DHT22;21053;50.848;4.652;2024-02-14T14:27:51;14.00;99.90
34837;DHT22;21053;50.848;4.652;2024-02-14T14:30:17;14.20;99.90
34837;DHT22;21053;50.848;4.652;2024-02-14T14:32:44;14.20;99.90
34837;DHT22;21053;50.848;4.652;2024-02-14T14:35:12;14.30;99.90
34837;DHT22;21053;50.848;4.652;2024-02-14T14:37:44;14.10;99.90
34837;DHT22;21053;50.848;4.652;2024-02-14T14:40:10;14.10;99.90
34837;DHT22;21053;50.848;4.652;2024-02-14T14:42:39;14.20;99.90
34837;DHT22;21053;50.848;4.652;2024-02-14T14:45:05;14.20;99.90
34837;DHT22;21053;50.848;4.652;2024-02-14T14:47:34;14.20;99.90
34837;DHT22;21053;50.848;4.652;2024-02-14T14:50:00;14.20;99.90
34837;DHT22;21053;50.848;4.652;2024-02-14T14:52:29;14.30;99.90
34837;DHT22;21053;50.848;4.652;2024-02-14T14:54:58;14.20;99.90
34837;DHT22;21053;50.848;4.652;2024-02-14T14:57:23;14.20;99.90
34837;DHT22;21053;50.848;4.652;2024-02-14T14:59:49;14.20;99.90
34837;DHT22;21053;50.848;4.652;2024-02-14T15:02:17;14.20;99.90
34837;DHT22;21053;50.848;4.652;2024-02-14T15:04:42;14.30;99.90
34837;DHT22;21053;50.848;4.652;2024-02-14T15:07:14;14.40;99.90
34837;DHT22;21053;50.848;4.652;2024-02-14T15:09:42;14.40;99.90
34837;DHT22;21053;50.848;4.652;2024-02-14T15:12:08;14.40;99.90
34837;DHT22;21053;50.848;4.652;2024-02-14T15:14:35;14.50;99.90
34837;DHT22;21053;50.848;4.652;2024-02-14T15:17:04;14.30;99.90
34837;DHT22;21053;50.848;4.652;2024-02-14T15:19:30;14.30;99.90
34837;DHT22;21053;50.848;4.652;2024-02-14T15:21:57;14.20;99.90
34837;DHT22;21053;50.848;4.652;2024-02-14T15:24:27;14.30;99.90
34837;DHT22;21053;50.848;4.652;2024-02-14T15:26:53;14.20;99.90
34837;DHT22;21053;50.848;4.652;2024-02-14T15:29:26;14.30;99.90
34837;DHT22;21053;50.848;4.652;2024-02-14T15:32:13;14.20;99.90
34837;DHT22;21053;50.848;4.652;2024-02-14T15:34:57;14.30;99.90
34837;DHT22;21053;50.848;4.652;2024-02-14T15:37:27;14.30;99.90
34837;DHT22;21053;50.848;4.652;2024-02-14T15:39:55;14.30;99.90
34837;DHT22;21053;50.848;4.652;2024-02-14T15:42:23;14.40;99.90